createdAt,value
2022-09-07T00:00:56.712Z,99870.81
2022-09-07T00:03:24.640Z,99873.34
2022-09-07T00:05:52.836Z,99871.75
2022-09-07T00:08:22.823Z,99875.44
2022-09-07T00:11:04.048Z,99874.75
2022-09-07T00:13:34.915Z,99876.41
2022-09-07T00:16:07.713Z,99871.13
2022-09-07T00:18:35.566Z,99873.69
2022-09-07T00:21:05.669Z,99861.44
2022-09-07T00:23:34.265Z,99865.00
2022-09-07T00:26:03.712Z,99859.75
2022-09-07T00:28:32.124Z,99860.97
2022-09-07T00:30:59.889Z,99858.06
2022-09-07T00:33:27.754Z,99845.69
2022-09-07T00:36:02.545Z,99854.78
2022-09-07T00:38:30.327Z,99854.03
2022-09-07T00:40:58.316Z,99846.53
2022-09-07T00:43:30.614Z,99849.59
2022-09-07T00:45:58.330Z,99846.47
2022-09-07T00:48:31.553Z,99853.88
2022-09-07T00:51:05.741Z,99850.72
2022-09-07T00:53:43.565Z,99852.28
2022-09-07T00:56:11.786Z,99849.44
2022-09-07T00:58:41.319Z,99851.91
2022-09-07T01:01:09.944Z,99845.69
2022-09-07T01:03:41.399Z,99844.66
2022-09-07T01:06:20.220Z,99851.94
2022-09-07T01:08:49.966Z,99846.31
2022-09-07T01:11:22.595Z,99851.63
2022-09-07T01:13:50.904Z,99845.81
2022-09-07T01:16:52.797Z,99854.03
2022-09-07T01:19:26.654Z,99844.66
2022-09-07T01:22:13.163Z,99852.47
2022-09-07T01:24:56.425Z,99843.84
2022-09-07T01:27:50.371Z,99839.41
2022-09-07T01:30:19.570Z,99832.19
2022-09-07T01:33:02.302Z,99835.94
2022-09-07T01:35:33.049Z,99829.84
2022-09-07T01:38:23.717Z,99832.81
2022-09-07T01:41:00.405Z,99836.22
2022-09-07T01:43:41.837Z,99829.84
2022-09-07T01:46:19.621Z,99832.53
2022-09-07T01:48:48.922Z,99830.72
2022-09-07T01:51:17.501Z,99818.87
2022-09-07T01:53:56.523Z,99819.78
2022-09-07T01:56:35.286Z,99824.84
2022-09-07T01:59:25.417Z,99830.63
2022-09-07T02:02:08.014Z,99817.44
2022-09-07T02:04:52.520Z,99819.00
2022-09-07T02:07:29.242Z,99814.97
2022-09-07T02:10:11.492Z,99815.84
2022-09-07T02:12:44.796Z,99818.69
2022-09-07T02:15:16.708Z,99818.56
2022-09-07T02:17:48.790Z,99821.31
2022-09-07T02:20:22.439Z,99819.84
2022-09-07T02:22:57.685Z,99816.25
2022-09-07T02:25:30.087Z,99809.25
2022-09-07T02:28:06.561Z,99811.84
2022-09-07T02:30:34.318Z,99807.28
2022-09-07T02:33:01.812Z,99809.84
2022-09-07T02:35:29.244Z,99809.56
2022-09-07T02:38:04.466Z,99801.28
2022-09-07T02:40:32.516Z,99801.72
2022-09-07T02:43:03.020Z,99803.72
2022-09-07T02:45:52.568Z,99798.19
2022-09-07T02:48:56.579Z,99797.63
2022-09-07T02:51:48.120Z,99804.06
2022-09-07T02:54:31.041Z,99795.34
2022-09-07T02:57:18.471Z,99794.94
2022-09-07T03:00:15.332Z,99792.00
2022-09-07T03:02:57.077Z,99793.41
2022-09-07T03:05:29.610Z,99789.19
2022-09-07T03:08:04.312Z,99800.06
2022-09-07T03:10:33.222Z,99794.56
2022-09-07T03:13:01.520Z,99786.81
2022-09-07T03:15:33.214Z,99788.34
2022-09-07T03:18:01.588Z,99786.81
2022-09-07T03:20:29.630Z,99795.72
2022-09-07T03:23:00.374Z,99789.38
2022-09-07T03:25:28.916Z,99792.88
2022-09-07T03:27:57.125Z,99786.22
2022-09-07T03:30:25.255Z,99781.09
2022-09-07T03:32:53.265Z,99786.09
2022-09-07T03:35:21.148Z,99783.00
2022-09-07T03:37:49.147Z,99787.44
2022-09-07T03:40:17.290Z,99792.06
2022-09-07T03:42:50.118Z,99784.56
2022-09-07T03:45:18.214Z,99795.66
2022-09-07T03:47:45.765Z,99797.66
2022-09-07T03:50:13.315Z,99800.44
2022-09-07T03:52:41.038Z,99807.50
2022-09-07T03:55:08.731Z,99806.09
2022-09-07T03:57:36.315Z,99802.66
2022-09-07T04:00:05.123Z,99809.69
2022-09-07T04:02:39.916Z,99807.62
2022-09-07T04:05:11.533Z,99807.53
2022-09-07T04:07:39.114Z,99804.56
2022-09-07T04:10:10.382Z,99805.44
2022-09-07T04:12:38.138Z,99809.87
2022-09-07T04:15:05.876Z,99816.75
2022-09-07T04:17:33.303Z,99813.94
2022-09-07T04:20:01.056Z,99809.69
2022-09-07T04:22:28.491Z,99802.13
2022-09-07T04:24:56.905Z,99809.06
2022-09-07T04:27:25.339Z,99810.41
2022-09-07T04:29:53.533Z,99813.41
2022-09-07T04:32:21.362Z,99815.09
2022-09-07T04:34:54.202Z,99820.00
2022-09-07T04:37:22.413Z,99825.00
2022-09-07T04:39:53.745Z,99829.34
2022-09-07T04:42:22.007Z,99838.44
2022-09-07T04:44:51.217Z,99840.78
2022-09-07T04:47:19.034Z,99828.19
2022-09-07T04:49:50.859Z,99840.50
2022-09-07T04:52:19.695Z,99835.50
2022-09-07T04:54:51.784Z,99834.09
2022-09-07T04:57:25.045Z,99834.53
2022-09-07T04:59:53.112Z,99834.22
2022-09-07T05:02:21.031Z,99838.16
2022-09-07T05:04:58.312Z,99834.72
2022-09-07T05:07:30.332Z,99828.28
2022-09-07T05:09:58.176Z,99832.34
2022-09-07T05:12:25.792Z,99835.06
2022-09-07T05:14:54.042Z,99834.59
2022-09-07T05:17:21.719Z,99837.91
2022-09-07T05:19:49.257Z,99841.41
2022-09-07T05:22:17.230Z,99841.47
2022-09-07T05:24:45.021Z,99846.63
2022-09-07T05:27:14.857Z,99847.59
2022-09-07T05:32:33.197Z,99852.38
2022-09-07T05:35:00.936Z,99862.31
2022-09-07T05:37:28.505Z,99860.12
2022-09-07T05:39:57.058Z,99855.13
2022-09-07T05:42:24.968Z,99864.03
2022-09-07T05:44:53.218Z,99859.59
2022-09-07T05:47:21.151Z,99859.06
2022-09-07T05:49:48.895Z,99862.53
2022-09-07T05:52:16.468Z,99863.69
2022-09-07T05:54:47.236Z,99861.47
2022-09-07T05:57:18.097Z,99867.19
2022-09-07T05:59:46.453Z,99872.84
2022-09-07T06:02:16.837Z,99870.81
2022-09-07T06:04:44.945Z,99858.31
2022-09-07T06:07:22.534Z,99871.47
2022-09-07T06:12:39.386Z,99868.06
2022-09-07T06:15:09.247Z,99868.34
2022-09-07T06:17:37.403Z,99881.44
2022-09-07T06:20:06.444Z,99878.97
2022-09-07T06:22:41.241Z,99880.00
2022-09-07T06:25:09.119Z,99884.59
2022-09-07T06:27:37.636Z,99872.97
2022-09-07T06:30:08.392Z,99866.78
2022-09-07T06:32:43.693Z,99866.19
2022-09-07T06:35:15.906Z,99863.91
2022-09-07T06:37:44.238Z,99862.66
2022-09-07T06:40:12.292Z,99861.06
2022-09-07T06:42:43.049Z,99857.91
2022-09-07T06:45:11.931Z,99865.59
2022-09-07T06:47:40.982Z,99859.34
2022-09-07T06:50:12.679Z,99870.16
2022-09-07T06:55:29.243Z,99857.38
2022-09-07T06:57:57.222Z,99855.50
2022-09-07T07:00:25.552Z,99862.81
2022-09-07T07:02:53.615Z,99854.47
2022-09-07T07:05:22.205Z,99862.59
2022-09-07T07:07:49.872Z,99858.41
2022-09-07T07:10:23.586Z,99861.13
2022-09-07T07:12:58.875Z,99869.47
2022-09-07T07:15:28.924Z,99861.13
2022-09-07T07:18:14.831Z,99866.53
2022-09-07T07:20:51.521Z,99867.56
2022-09-07T07:23:19.919Z,99872.16
2022-09-07T07:25:47.580Z,99870.91
2022-09-07T07:31:09.085Z,99868.38
2022-09-07T07:33:43.673Z,99868.56
2022-09-07T07:36:13.509Z,99877.09
2022-09-07T07:44:20.541Z,99871.25
2022-09-07T07:46:50.512Z,99877.97
2022-09-07T07:49:19.709Z,99872.84
2022-09-07T07:54:39.523Z,99873.06
2022-09-07T07:57:11.030Z,99867.81
2022-09-07T07:59:39.694Z,99871.94
2022-09-07T08:02:09.067Z,99857.13
2022-09-07T08:04:37.315Z,99862.97
2022-09-07T08:07:10.995Z,99862.94
2022-09-07T08:09:45.977Z,99860.84
2022-09-07T08:12:19.244Z,99868.53
2022-09-07T08:14:59.640Z,99874.69
2022-09-07T08:17:28.221Z,99872.81
2022-09-07T08:20:00.164Z,99874.47
2022-09-07T08:22:36.500Z,99870.66
2022-09-07T08:25:05.825Z,99867.69
2022-09-07T08:27:39.959Z,99861.38
2022-09-07T08:30:14.734Z,99869.78
2022-09-07T08:32:54.295Z,99862.00
2022-09-07T08:35:22.702Z,99860.31
2022-09-07T08:37:50.345Z,99862.97
2022-09-07T08:40:19.004Z,99862.09
2022-09-07T08:42:53.202Z,99860.75
2022-09-07T08:45:31.840Z,99860.34
2022-09-07T08:48:00.099Z,99862.13
2022-09-07T08:50:38.996Z,99866.81
2022-09-07T08:53:17.829Z,99861.94
2022-09-07T08:56:06.356Z,99866.34
2022-09-07T08:58:49.061Z,99851.59
2022-09-07T09:01:31.595Z,99856.44
2022-09-07T09:04:19.407Z,99849.06
2022-09-07T09:06:53.972Z,99848.31
2022-09-07T09:09:47.050Z,99852.56
2022-09-07T09:12:37.481Z,99850.16
2022-09-07T09:15:32.829Z,99856.34
2022-09-07T09:18:08.170Z,99856.19
2022-09-07T09:20:50.051Z,99848.56
2022-09-07T09:23:24.530Z,99852.53
2022-09-07T09:25:56.055Z,99849.03
2022-09-07T09:28:25.508Z,99853.56
2022-09-07T09:30:55.727Z,99843.28
2022-09-07T09:33:30.129Z,99837.91
2022-09-07T09:36:00.619Z,99840.66
2022-09-07T09:38:43.694Z,99840.91
2022-09-07T09:41:15.513Z,99835.94
2022-09-07T09:43:54.059Z,99829.69
2022-09-07T09:46:28.812Z,99828.19
2022-09-07T09:48:59.868Z,99829.34
2022-09-07T09:54:25.673Z,99822.03
2022-09-07T09:56:54.199Z,99827.84
2022-09-07T10:05:35.366Z,99821.38
2022-09-07T10:08:05.331Z,99819.25
2022-09-07T10:10:33.091Z,99815.91
2022-09-07T10:13:05.998Z,99812.38
2022-09-07T10:15:41.281Z,99823.16
2022-09-07T10:18:21.957Z,99812.50
2022-09-07T10:20:49.738Z,99814.25
2022-09-07T10:23:25.426Z,99798.84
2022-09-07T10:25:53.648Z,99807.72
2022-09-07T10:28:24.890Z,99803.53
2022-09-07T10:31:22.124Z,99807.94
2022-09-07T10:37:03.872Z,99807.34
2022-09-07T10:40:07.190Z,99808.69
2022-09-07T10:45:57.157Z,99805.56
2022-09-07T10:49:00.378Z,99799.53
2022-09-07T10:51:56.692Z,99804.25
2022-09-07T10:54:46.441Z,99806.00
2022-09-07T10:57:26.831Z,99798.41
2022-09-07T11:00:20.051Z,99805.88
2022-09-07T11:03:25.536Z,99796.78
2022-09-07T11:06:22.371Z,99796.53
2022-09-07T11:09:16.478Z,99801.50
2022-09-07T11:12:05.740Z,99795.63
2022-09-07T11:15:03.121Z,99794.56
2022-09-07T11:17:31.378Z,99789.50
2022-09-07T11:20:27.451Z,99800.06
2022-09-07T11:23:27.285Z,99787.50
2022-09-07T11:26:38.418Z,99778.91
2022-09-07T11:29:29.640Z,99788.75
2022-09-07T11:32:02.243Z,99785.69
2022-09-07T11:34:41.479Z,99783.53
2022-09-07T11:37:35.467Z,99786.84
2022-09-07T11:40:25.811Z,99777.81
2022-09-07T11:42:59.825Z,99779.63
2022-09-07T11:45:44.461Z,99782.09
2022-09-07T11:48:40.338Z,99779.31
2022-09-07T11:51:20.081Z,99776.38
2022-09-07T11:53:55.273Z,99773.19
2022-09-07T11:56:38.450Z,99769.81
2022-09-07T11:59:28.057Z,99769.97
2022-09-07T12:02:17.391Z,99765.63
2022-09-07T12:05:08.555Z,99763.59
2022-09-07T12:08:27.398Z,99758.66
2022-09-07T12:11:19.086Z,99759.06
2022-09-07T12:14:05.578Z,99754.41
2022-09-07T12:16:56.405Z,99740.22
2022-09-07T12:19:28.668Z,99751.72
2022-09-07T12:21:58.198Z,99750.84
2022-09-07T12:24:42.429Z,99749.41
2022-09-07T12:27:20.032Z,99747.41
2022-09-07T12:30:02.604Z,99745.28
2022-09-07T12:32:57.445Z,99739.63
2022-09-07T12:35:31.998Z,99744.78
2022-09-07T12:38:08.466Z,99745.94
2022-09-07T12:40:35.839Z,99752.22
2022-09-07T12:43:13.010Z,99745.50
2022-09-07T12:45:44.486Z,99749.87
2022-09-07T12:48:17.374Z,99739.72
2022-09-07T12:51:09.765Z,99735.19
2022-09-07T12:53:57.901Z,99728.28
2022-09-07T12:56:45.117Z,99729.06
2022-09-07T12:59:40.341Z,99732.41
2022-09-07T13:02:29.441Z,99729.16
2022-09-07T13:05:06.351Z,99728.13
2022-09-07T13:08:04.316Z,99728.72
2022-09-07T13:10:42.059Z,99733.50
2022-09-07T13:13:16.138Z,99718.94
2022-09-07T13:16:13.961Z,99712.31
2022-09-07T13:18:47.731Z,99710.25
2022-09-07T13:21:17.624Z,99712.44
2022-09-07T13:27:24.231Z,99710.84
2022-09-07T13:30:07.275Z,99699.28
2022-09-07T13:35:24.919Z,99694.34
2022-09-07T13:38:03.511Z,99686.97
2022-09-07T13:40:35.197Z,99689.16
2022-09-07T13:43:08.208Z,99682.81
2022-09-07T13:46:02.491Z,99686.66
2022-09-07T13:48:44.609Z,99690.50
2022-09-07T13:51:35.964Z,99688.00
2022-09-07T13:54:14.095Z,99677.88
2022-09-07T13:56:56.876Z,99672.87
2022-09-07T13:59:35.372Z,99672.87
2022-09-07T14:02:26.643Z,99674.47
2022-09-07T14:05:00.701Z,99671.22
2022-09-07T14:07:33.306Z,99665.47
2022-09-07T14:10:14.416Z,99664.97
2022-09-07T14:13:06.279Z,99661.38
2022-09-07T14:15:42.413Z,99652.88
2022-09-07T14:18:29.986Z,99666.06
2022-09-07T14:21:01.662Z,99664.13
2022-09-07T14:23:36.255Z,99669.09
2022-09-07T14:26:17.733Z,99671.59
2022-09-07T14:29:02.215Z,99671.03
2022-09-07T14:31:34.780Z,99670.75
2022-09-07T14:34:06.726Z,99661.66
2022-09-07T14:36:44.697Z,99660.03
2022-09-07T14:39:15.786Z,99658.09
2022-09-07T14:41:46.494Z,99653.66
2022-09-07T14:44:34.241Z,99660.25
2022-09-07T14:47:18.910Z,99658.59
2022-09-07T14:49:52.765Z,99649.28
2022-09-07T14:52:29.434Z,99656.06
2022-09-07T14:54:57.097Z,99655.78
2022-09-07T14:57:32.089Z,99648.69
2022-09-07T15:00:32.257Z,99649.25
2022-09-07T15:03:39.072Z,99652.28
2022-09-07T15:06:09.560Z,99650.31
2022-09-07T15:08:46.445Z,99646.47
2022-09-07T15:11:38.725Z,99652.00
2022-09-07T15:14:11.914Z,99653.13
2022-09-07T15:16:42.803Z,99657.91
2022-09-07T15:19:17.056Z,99647.25
2022-09-07T15:21:47.728Z,99645.91
2022-09-07T15:24:16.558Z,99640.13
2022-09-07T15:27:02.571Z,99649.16
2022-09-07T15:29:32.131Z,99641.47
2022-09-07T15:32:04.398Z,99640.34
2022-09-07T15:34:34.390Z,99643.91
2022-09-07T15:37:03.687Z,99649.13
2022-09-07T15:39:34.521Z,99648.00
2022-09-07T15:42:59.435Z,99641.63
2022-09-07T15:44:53.872Z,99648.22
2022-09-07T15:50:10.388Z,99646.19
2022-09-07T15:52:38.805Z,99644.72
2022-09-07T15:55:08.741Z,99644.41
2022-09-07T15:58:05.234Z,99653.16
2022-09-07T16:00:24.401Z,99652.03
2022-09-07T16:03:08.808Z,99658.31
2022-09-07T16:05:41.123Z,99659.91
2022-09-07T16:08:25.121Z,99654.69
2022-09-07T16:10:54.138Z,99648.91
2022-09-07T16:13:24.469Z,99651.97
2022-09-07T16:15:52.429Z,99657.97
2022-09-07T16:18:22.394Z,99652.38
2022-09-07T16:20:52.875Z,99654.00
2022-09-07T16:23:20.893Z,99649.22
2022-09-07T16:25:58.771Z,99642.31
2022-09-07T16:28:28.287Z,99647.38
2022-09-07T16:30:56.545Z,99649.56
2022-09-07T16:33:36.135Z,99645.94
2022-09-07T16:36:13.095Z,99638.88
2022-09-07T16:38:45.933Z,99630.00
2022-09-07T16:41:19.985Z,99630.34
2022-09-07T16:43:47.987Z,99628.66
2022-09-07T16:46:21.251Z,99626.72
2022-09-07T16:48:49.239Z,99620.34
2022-09-07T16:51:19.948Z,99617.53
2022-09-07T16:53:51.798Z,99610.44
2022-09-07T16:56:21.750Z,99605.31
2022-09-07T16:58:55.548Z,99606.03
2022-09-07T17:01:29.001Z,99599.84
2022-09-07T17:03:57.045Z,99600.34
2022-09-07T17:06:26.392Z,99602.47
2022-09-07T17:08:54.869Z,99592.31
2022-09-07T17:11:29.858Z,99590.84
2022-09-07T17:14:02.719Z,99593.44
2022-09-07T17:16:33.644Z,99591.22
2022-09-07T17:22:01.565Z,99599.31
2022-09-07T17:24:32.221Z,99603.88
2022-09-07T17:27:01.131Z,99605.94
2022-09-07T17:29:33.861Z,99602.38
2022-09-07T17:32:23.924Z,99614.09
2022-09-07T17:34:53.452Z,99609.47
2022-09-07T17:37:25.723Z,99610.47
2022-09-07T17:39:53.850Z,99620.84
2022-09-07T17:42:22.170Z,99623.75
2022-09-07T17:44:52.845Z,99627.78
2022-09-07T17:47:21.249Z,99626.87
2022-09-07T17:49:49.281Z,99626.75
2022-09-07T17:52:17.101Z,99638.59
2022-09-07T17:54:45.748Z,99637.66
2022-09-07T17:57:16.210Z,99637.69
2022-09-07T18:02:38.014Z,99644.44
2022-09-07T18:05:09.705Z,99644.19
2022-09-07T18:07:38.629Z,99646.09
2022-09-07T18:10:11.752Z,99654.84
2022-09-07T18:12:40.744Z,99654.88
2022-09-07T18:15:10.047Z,99657.37
2022-09-07T18:17:41.727Z,99655.78
2022-09-07T18:20:11.191Z,99656.59
2022-09-07T18:22:39.829Z,99655.44
2022-09-07T18:25:10.372Z,99659.28
2022-09-07T18:27:40.426Z,99658.34
2022-09-07T18:30:11.636Z,99664.16
2022-09-07T18:32:40.543Z,99656.69
2022-09-07T18:35:13.045Z,99659.66
2022-09-07T18:37:41.945Z,99661.91
2022-09-07T18:40:10.690Z,99656.34
2022-09-07T18:42:40.564Z,99665.25
2022-09-07T18:48:00.393Z,99658.50
2022-09-07T18:50:28.838Z,99653.84
2022-09-07T18:53:07.334Z,99658.22
2022-09-07T18:55:44.628Z,99647.19
2022-09-07T18:58:20.872Z,99647.53
2022-09-07T19:00:58.518Z,99642.00
2022-09-07T19:03:28.486Z,99647.81
2022-09-07T19:06:02.459Z,99651.16
2022-09-07T19:08:35.360Z,99643.47
2022-09-07T19:11:25.535Z,99638.06
2022-09-07T19:14:01.868Z,99638.34
2022-09-07T19:16:32.122Z,99637.69
2022-09-07T19:19:06.366Z,99639.09
2022-09-07T19:21:38.019Z,99635.16
2022-09-07T19:24:14.040Z,99639.91
2022-09-07T19:26:48.725Z,99630.75
2022-09-07T19:29:24.067Z,99638.56
2022-09-07T19:32:07.154Z,99644.53
2022-09-07T19:34:43.790Z,99638.22
2022-09-07T19:37:16.809Z,99640.72
2022-09-07T19:39:51.039Z,99647.44
2022-09-07T19:42:30.273Z,99641.66
2022-09-07T19:45:03.248Z,99642.09
2022-09-07T19:47:34.041Z,99632.47
2022-09-07T19:50:02.815Z,99640.31
2022-09-07T19:52:34.215Z,99646.25
2022-09-07T19:55:05.268Z,99634.75
2022-09-07T19:57:38.555Z,99637.19
2022-09-07T20:00:09.847Z,99639.56
2022-09-07T20:02:40.955Z,99630.94
2022-09-07T20:05:15.317Z,99632.47
2022-09-07T20:07:46.973Z,99637.28
2022-09-07T20:10:16.850Z,99629.75
2022-09-07T20:12:47.409Z,99636.06
2022-09-07T20:15:15.946Z,99629.75
2022-09-07T20:17:44.774Z,99636.25
2022-09-07T20:20:12.996Z,99634.72
2022-09-07T20:22:41.356Z,99638.50
2022-09-07T20:25:13.374Z,99632.91
2022-09-07T20:27:42.238Z,99632.00
2022-09-07T20:30:14.474Z,99630.19
2022-09-07T20:32:46.008Z,99627.72
2022-09-07T20:35:15.638Z,99629.88
2022-09-07T20:37:45.169Z,99629.72
2022-09-07T20:40:15.923Z,99623.41
2022-09-07T20:42:43.896Z,99619.81
2022-09-07T20:45:11.545Z,99622.91
2022-09-07T20:47:40.041Z,99621.19
2022-09-07T20:50:09.022Z,99615.00
2022-09-07T20:52:37.078Z,99613.72
2022-09-07T20:55:07.199Z,99622.91
2022-09-07T20:57:38.015Z,99613.37
2022-09-07T21:00:07.911Z,99615.59
2022-09-07T21:02:36.666Z,99619.34
2022-09-07T21:05:05.274Z,99624.06
2022-09-07T21:07:33.503Z,99628.19
2022-09-07T21:10:04.693Z,99618.94
2022-09-07T21:12:35.305Z,99627.31
2022-09-07T21:15:07.274Z,99611.94
2022-09-07T21:17:35.108Z,99607.03
2022-09-07T21:20:02.868Z,99606.84
2022-09-07T21:22:32.617Z,99607.03
2022-09-07T21:25:02.207Z,99595.78
2022-09-07T21:27:38.633Z,99603.09
2022-09-07T21:30:07.477Z,99603.97
2022-09-07T21:32:53.636Z,99605.13
2022-09-07T21:35:22.791Z,99604.31
2022-09-07T21:37:52.226Z,99602.47
2022-09-07T21:40:19.697Z,99603.69
2022-09-07T21:42:47.555Z,99607.84
2022-09-07T21:45:15.118Z,99610.63
2022-09-07T21:47:42.676Z,99613.75
2022-09-07T21:50:10.544Z,99608.00
2022-09-07T21:52:38.982Z,99609.16
2022-09-07T21:55:07.471Z,99605.00
2022-09-07T21:57:38.562Z,99608.09
2022-09-07T22:00:08.428Z,99603.09
2022-09-07T22:02:35.837Z,99606.88
2022-09-07T22:05:04.385Z,99609.31
2022-09-07T22:07:32.772Z,99601.91
2022-09-07T22:10:03.261Z,99612.84
2022-09-07T22:12:31.466Z,99614.78
2022-09-07T22:14:58.948Z,99618.44
2022-09-07T22:17:26.521Z,99606.50
2022-09-07T22:19:54.385Z,99611.66
2022-09-07T22:22:21.823Z,99617.41
2022-09-07T22:24:49.247Z,99622.34
2022-09-07T22:27:16.966Z,99606.66
2022-09-07T22:29:44.904Z,99609.41
2022-09-07T22:32:12.535Z,99602.19
2022-09-07T22:34:40.191Z,99602.53
2022-09-07T22:37:07.627Z,99600.91
2022-09-07T22:39:35.100Z,99602.53
2022-09-07T22:42:02.833Z,99603.84
2022-09-07T22:44:30.426Z,99602.75
2022-09-07T22:46:58.074Z,99603.53
2022-09-07T22:49:25.788Z,99599.25
2022-09-07T22:51:53.265Z,99591.25
2022-09-07T22:54:21.477Z,99587.25
2022-09-07T22:56:49.547Z,99589.34
2022-09-07T22:59:17.042Z,99582.59
2022-09-07T23:01:44.536Z,99586.78
2022-09-07T23:04:13.361Z,99578.66
2022-09-07T23:06:42.172Z,99568.16
2022-09-07T23:09:12.505Z,99564.47
2022-09-07T23:11:40.557Z,99568.78
2022-09-07T23:14:12.926Z,99563.03
2022-09-07T23:16:41.140Z,99565.19
2022-09-07T23:19:10.213Z,99561.06
2022-09-07T23:21:38.286Z,99556.69
2022-09-07T23:24:06.224Z,99563.06
2022-09-07T23:26:33.877Z,99557.53
2022-09-07T23:29:04.631Z,99561.84
2022-09-07T23:31:34.364Z,99553.91
2022-09-07T23:34:02.870Z,99557.25
2022-09-07T23:36:30.743Z,99542.84
2022-09-07T23:38:59.673Z,99541.91
2022-09-07T23:41:27.096Z,99537.06
2022-09-07T23:43:54.953Z,99541.09
2022-09-07T23:46:23.270Z,99528.25
2022-09-07T23:48:50.866Z,99533.97
2022-09-07T23:51:23.505Z,99525.38
2022-09-07T23:53:52.412Z,99525.84
2022-09-07T23:56:20.342Z,99532.16
2022-09-07T23:58:47.952Z,99542.28
